KCDR/CDR METAR and TAF weather

Enter ICAO airport designator
Station Type Date Time Source
KCDR METAR 2024/04/15 07:53 UTC NOAA

KCDR 150753Z AUTO 16028G44KT 10SM CLR 18/04 A2968 RMK AO2 PK WND 16044/0746 SLP027 T01780039 $


Station Type Date Time Source
KCDR Decoded METAR 2024/04/15 07:53 UTC NOAA

CHADRON MUNICIPAL AIRPORT, NE, United States (KCDR) 42-50N 103-06W 1010M
Apr 15, 2024 - 03:53 AM EDT / 2024.04.15 0753 UTC
Wind: from the SSE (160 degrees) at 32 MPH (28 KT) gusting to 51 MPH (44 KT):0
Visibility: 10 mile(s):0
Sky conditions: clear
Temperature: 64.0 F (17.8 C)
Dew Point: 39.0 F (3.9 C)
Relative Humidity: 39%
Pressure (altimeter): 29.68 in. Hg (1005 hPa)
ob: KCDR 150753Z AUTO 16028G44KT 10SM CLR 18/04 A2968 RMK AO2 PK WND 16044/0746 SLP027 T01780039
cycle: 8

Station Type Date Time Source
KCDR TAF 2024/04/14 18:22 UTC NOAA